Time;durP1;ratioP1;P1;durP2;ratioP2;P2;SDS_P1;SDS_P2;PMS_P1;PMS_P2;Temp;Humidity;BMP_temperature;BMP_pressure;BME280_temperature;BME280_humidity;BME280_pressure;Samples;Min_cycle;Max_cycle;Signal;HPM_P1;HPM_P2
2023/10/31 00:00:21;;;;;;;0.20;0.20;;;13.50;86.80;;;;;;5066837;28;20120;-66
2023/10/31 00:02:46;;;;;;;0.20;0.20;;;13.50;87.50;;;;;;5074942;28;20376;-67
2023/10/31 00:05:12;;;;;;;0.20;0.20;;;13.50;87.00;;;;;;5072445;28;20388;-66
2023/10/31 00:07:37;;;;;;;0.47;0.47;;;13.40;86.80;;;;;;5067380;28;20079;-66
2023/10/31 00:10:03;;;;;;;0.40;0.40;;;13.40;86.20;;;;;;5082397;28;20102;-66
2023/10/31 00:12:29;;;;;;;0.17;0.17;;;13.20;86.30;;;;;;5072884;28;20115;-66
2023/10/31 00:14:55;;;;;;;0.30;0.30;;;13.20;86.50;;;;;;5063344;28;20043;-67
2023/10/31 00:17:20;;;;;;;0.50;0.43;;;13.10;86.30;;;;;;5063340;28;20024;-66
2023/10/31 00:19:46;;;;;;;0.10;0.10;;;13.00;86.40;;;;;;5071791;28;20087;-63
2023/10/31 00:22:12;;;;;;;0.20;0.20;;;13.00;86.20;;;;;;5084339;28;20028;-63
2023/10/31 00:24:37;;;;;;;0.30;0.15;;;12.90;86.20;;;;;;5064746;28;20037;-63
2023/10/31 00:27:03;;;;;;;1.08;0.20;;;12.90;86.30;;;;;;5067982;28;20075;-66
2023/10/31 00:29:29;;;;;;;0.20;0.20;;;12.80;86.50;;;;;;5071200;28;20043;-66
2023/10/31 00:31:54;;;;;;;0.85;0.50;;;12.90;86.70;;;;;;5067836;28;20028;-63
2023/10/31 00:34:20;;;;;;;0.28;0.28;;;12.90;86.70;;;;;;5058560;28;20043;-66
2023/10/31 00:36:46;;;;;;;0.30;0.30;;;12.90;86.60;;;;;;5071845;28;20032;-66
2023/10/31 00:39:12;;;;;;;0.22;0.22;;;13.00;86.50;;;;;;5071629;28;20498;-66
2023/10/31 00:41:39;;;;;;;0.38;0.30;;;13.10;86.50;;;;;;5065407;28;20040;-66
2023/10/31 00:44:05;;;;;;;0.52;0.30;;;13.10;86.50;;;;;;5074492;28;20033;-63
2023/10/31 00:46:30;;;;;;;1.00;0.30;;;13.10;86.40;;;;;;5068240;28;20490;-63
2023/10/31 00:48:57;;;;;;;0.95;0.43;;;13.00;86.30;;;;;;5067380;28;20483;-67
2023/10/31 00:51:22;;;;;;;0.70;0.68;;;13.00;86.50;;;;;;5067416;28;20127;-66
2023/10/31 00:53:48;;;;;;;0.60;0.60;;;12.90;86.50;;;;;;5076587;28;20103;-66
2023/10/31 00:56:14;;;;;;;0.38;0.38;;;12.90;86.60;;;;;;5061687;28;20033;-63
2023/10/31 00:58:39;;;;;;;1.40;0.30;;;12.90;86.70;;;;;;5064066;28;20475;-63
2023/10/31 01:01:05;;;;;;;1.85;0.47;;;13.00;86.60;;;;;;5060086;28;20463;-63
2023/10/31 01:03:31;;;;;;;0.30;0.30;;;12.90;86.40;;;;;;5066597;28;20056;-66
2023/10/31 01:05:56;;;;;;;1.10;0.30;;;12.80;86.50;;;;;;5062484;28;20020;-63
2023/10/31 01:08:22;;;;;;;0.30;0.30;;;12.80;86.60;;;;;;5069094;28;20036;-63
2023/10/31 01:10:48;;;;;;;0.45;0.45;;;12.80;86.60;;;;;;5064869;28;20514;-63
2023/10/31 01:13:13;;;;;;;1.38;0.20;;;12.80;86.30;;;;;;5056913;28;20468;-66
2023/10/31 01:15:39;;;;;;;3.15;0.70;;;12.80;86.40;;;;;;5068106;28;20508;-66
2023/10/31 01:18:05;;;;;;;4.00;1.45;;;12.80;86.20;;;;;;5061465;28;20052;-66
2023/10/31 01:20:31;;;;;;;2.33;0.95;;;12.80;86.10;;;;;;5064241;28;20076;-63
2023/10/31 01:22:57;;;;;;;2.13;1.10;;;12.70;86.30;;;;;;5066911;28;20056;-63
2023/10/31 01:25:22;;;;;;;2.35;0.98;;;12.70;86.30;;;;;;5072254;28;20052;-63
2023/10/31 01:27:48;;;;;;;2.05;1.33;;;12.60;86.40;;;;;;5069607;28;20029;-66
2023/10/31 01:30:14;;;;;;;2.00;1.40;;;12.60;86.60;;;;;;5064074;28;20372;-67
2023/10/31 01:32:39;;;;;;;1.65;1.13;;;12.60;86.60;;;;;;5062588;28;20029;-67
2023/10/31 01:35:05;;;;;;;5.22;1.58;;;12.50;86.60;;;;;;5067224;28;20123;-63
2023/10/31 01:37:31;;;;;;;3.83;1.98;;;12.60;86.70;;;;;;5062692;28;20920;-63
2023/10/31 01:39:57;;;;;;;1.80;1.38;;;12.60;86.70;;;;;;5069412;28;20035;-66
2023/10/31 01:42:22;;;;;;;2.38;1.90;;;12.50;86.60;;;;;;5068215;28;20372;-66
2023/10/31 01:44:48;;;;;;;1.67;1.48;;;12.50;86.80;;;;;;5084083;28;20521;-63
2023/10/31 01:47:14;;;;;;;2.40;1.85;;;12.60;86.90;;;;;;5066649;28;20464;-63
2023/10/31 01:49:39;;;;;;;3.13;1.35;;;12.60;86.80;;;;;;5075295;28;20033;-63
2023/10/31 01:52:07;;;;;;;2.92;1.80;;;12.60;86.90;;;;;;5068031;28;20340;-63
2023/10/31 01:54:35;;;;;;;1.33;1.08;;;12.60;86.90;;;;;;5062962;28;20027;-63
2023/10/31 01:57:04;;;;;;;2.20;1.75;;;12.70;86.90;;;;;;5071022;28;20048;-63
2023/10/31 01:59:30;;;;;;;3.45;1.73;;;12.70;86.90;;;;;;5064596;28;20043;-63
2023/10/31 02:01:57;;;;;;;4.65;2.67;;;12.70;86.90;;;;;;5058952;28;20108;-63
2023/10/31 02:04:24;;;;;;;3.53;2.20;;;12.70;87.00;;;;;;5074206;28;20032;-63
2023/10/31 02:06:49;;;;;;;5.35;1.48;;;12.70;87.00;;;;;;5062731;28;20035;-66
2023/10/31 02:09:15;;;;;;;6.53;2.55;;;12.80;87.00;;;;;;5081003;28;20430;-67
2023/10/31 02:11:41;;;;;;;4.50;2.38;;;12.80;86.80;;;;;;5069508;28;20036;-66
2023/10/31 02:14:06;;;;;;;3.00;1.83;;;12.70;86.80;;;;;;5072443;28;20459;-67
2023/10/31 02:16:32;;;;;;;4.45;3.15;;;12.70;87.00;;;;;;5071708;28;20492;-66
2023/10/31 02:18:58;;;;;;;4.15;1.77;;;12.70;87.00;;;;;;5071016;28;20048;-63
2023/10/31 02:21:25;;;;;;;3.28;2.25;;;12.80;87.00;;;;;;5074607;28;20032;-67
2023/10/31 02:24:04;;;;;;;5.47;3.33;;;12.80;87.00;;;;;;5073331;28;20050;-67
2023/10/31 02:26:30;;;;;;;6.25;3.17;;;12.90;86.80;;;;;;5065277;28;20024;-63
2023/10/31 02:28:56;;;;;;;4.88;3.60;;;12.80;86.90;;;;;;5066705;28;20029;-64
2023/10/31 02:31:22;;;;;;;3.80;2.75;;;12.80;87.00;;;;;;5069802;28;20036;-67
2023/10/31 02:33:47;;;;;;;4.68;3.22;;;12.80;87.00;;;;;;5070655;28;20082;-67
2023/10/31 02:36:13;;;;;;;6.55;2.28;;;12.90;87.00;;;;;;5066076;28;20403;-67
2023/10/31 02:38:39;;;;;;;3.22;2.17;;;12.90;87.00;;;;;;5068206;28;20040;-67
2023/10/31 02:41:05;;;;;;;4.50;2.33;;;12.90;86.90;;;;;;5065635;28;20060;-63
2023/10/31 02:43:31;;;;;;;5.75;2.90;;;13.00;87.10;;;;;;5072801;28;20517;-66
2023/10/31 02:45:57;;;;;;;5.75;3.10;;;12.90;87.00;;;;;;5072486;28;20021;-67
2023/10/31 02:48:24;;;;;;;3.97;2.38;;;12.90;87.20;;;;;;5067247;28;20544;-66
2023/10/31 02:50:50;;;;;;;5.18;2.83;;;12.90;87.10;;;;;;5069270;28;20024;-67
2023/10/31 02:53:17;;;;;;;5.68;2.80;;;13.00;87.30;;;;;;5075287;28;20024;-67
2023/10/31 02:55:43;;;;;;;5.93;1.90;;;12.90;87.10;;;;;;5072287;28;20115;-67
2023/10/31 02:58:09;;;;;;;5.13;3.58;;;13.00;87.10;;;;;;5068214;28;20163;-63
2023/10/31 03:00:34;;;;;;;5.93;2.70;;;13.00;87.10;;;;;;5066790;28;20037;-63
2023/10/31 03:03:00;;;;;;;4.18;2.92;;;12.90;87.10;;;;;;5065688;28;20427;-64
2023/10/31 03:05:26;;;;;;;3.20;2.00;;;12.90;87.30;;;;;;5076664;28;20156;-66
2023/10/31 03:07:52;;;;;;;5.07;2.72;;;12.90;87.30;;;;;;5082514;28;20032;-66
2023/10/31 03:10:20;;;;;;;3.50;2.60;;;13.00;87.30;;;;;;5063409;28;20024;-67
2023/10/31 03:12:45;;;;;;;4.13;2.85;;;13.00;87.20;;;;;;5066508;28;20055;-67
2023/10/31 03:15:11;;;;;;;4.13;2.95;;;13.00;87.40;;;;;;5069811;28;20033;-66
2023/10/31 03:17:37;;;;;;;6.45;2.38;;;12.90;87.40;;;;;;5071242;28;20471;-63
2023/10/31 03:20:03;;;;;;;4.80;2.75;;;13.00;87.50;;;;;;5047535;28;20400;-66
2023/10/31 03:22:29;;;;;;;5.55;2.80;;;13.00;87.50;;;;;;5047703;28;20040;-66
2023/10/31 03:24:55;;;;;;;4.93;2.58;;;12.90;87.50;;;;;;5047779;28;20032;-63
2023/10/31 03:27:20;;;;;;;4.80;2.42;;;12.90;87.70;;;;;;5048744;28;20469;-67
2023/10/31 03:29:46;;;;;;;5.20;3.35;;;12.90;87.70;;;;;;5055582;28;20025;-66
2023/10/31 03:32:12;;;;;;;6.80;2.75;;;12.90;87.70;;;;;;5053558;28;20036;-63
2023/10/31 03:34:37;;;;;;;3.47;2.28;;;12.90;87.90;;;;;;5048361;28;20112;-67
2023/10/31 03:37:04;;;;;;;6.20;3.42;;;12.80;87.90;;;;;;5046792;28;20034;-66
2023/10/31 03:39:30;;;;;;;5.47;2.72;;;12.90;88.00;;;;;;5046115;28;20460;-63
2023/10/31 03:41:55;;;;;;;7.43;3.55;;;12.90;88.00;;;;;;5037371;28;20116;-63
2023/10/31 03:44:21;;;;;;;4.18;2.80;;;12.80;88.00;;;;;;5031398;28;20113;-66
2023/10/31 03:46:47;;;;;;;4.78;2.25;;;12.80;88.10;;;;;;5047763;28;20079;-66
2023/10/31 03:49:12;;;;;;;4.57;3.08;;;12.80;88.10;;;;;;5046005;28;20073;-66
2023/10/31 03:51:38;;;;;;;5.07;3.05;;;12.90;88.10;;;;;;5045701;28;20155;-63
2023/10/31 03:54:04;;;;;;;4.45;2.63;;;12.90;88.10;;;;;;5044897;28;20070;-63
2023/10/31 03:56:29;;;;;;;4.85;2.53;;;12.80;88.10;;;;;;5045152;28;20025;-63
2023/10/31 03:58:55;;;;;;;5.72;2.03;;;12.80;88.10;;;;;;5050625;28;20516;-63
2023/10/31 04:01:21;;;;;;;4.22;2.80;;;12.80;88.10;;;;;;5049415;28;20033;-66
2023/10/31 04:03:47;;;;;;;3.25;1.83;;;12.80;88.10;;;;;;5042255;28;20037;-66
2023/10/31 04:06:12;;;;;;;3.20;1.73;;;12.80;88.10;;;;;;5050128;28;20079;-66
2023/10/31 04:08:38;;;;;;;6.68;2.47;;;12.80;88.10;;;;;;5049185;28;20033;-66
2023/10/31 04:11:04;;;;;;;3.17;2.08;;;12.70;88.00;;;;;;5050890;28;20029;-66
2023/10/31 04:13:29;;;;;;;4.78;2.05;;;12.80;88.20;;;;;;5050657;28;20025;-66
2023/10/31 04:15:55;;;;;;;2.05;1.60;;;12.80;88.00;;;;;;5053248;28;20033;-63
2023/10/31 04:18:20;;;;;;;4.18;1.48;;;12.80;88.00;;;;;;5056936;28;20052;-63
2023/10/31 04:20:46;;;;;;;2.28;1.60;;;12.80;87.90;;;;;;5084069;28;20086;-63
2023/10/31 04:23:12;;;;;;;2.20;1.55;;;12.80;87.80;;;;;;5065299;28;20032;-63
2023/10/31 04:25:38;;;;;;;2.30;1.70;;;12.80;87.80;;;;;;5074281;28;20120;-63
2023/10/31 04:28:04;;;;;;;3.35;2.53;;;12.80;87.70;;;;;;5075256;28;20546;-63
2023/10/31 04:30:29;;;;;;;2.55;1.40;;;12.80;87.70;;;;;;5072929;28;20035;-63
2023/10/31 04:32:55;;;;;;;2.70;2.05;;;12.70;87.80;;;;;;5067291;28;20028;-63
2023/10/31 04:35:21;;;;;;;1.15;1.05;;;12.70;88.50;;;;;;5072002;28;20115;-63
2023/10/31 04:37:46;;;;;;;1.95;1.55;;;12.70;87.80;;;;;;5070633;28;20024;-63
2023/10/31 04:40:12;;;;;;;2.85;1.77;;;12.70;87.80;;;;;;5065143;28;20028;-63
2023/10/31 04:42:42;;;;;;;2.13;1.65;;;12.70;87.90;;;;;;5065737;28;20031;-66
2023/10/31 04:45:08;;;;;;;2.28;1.33;;;12.80;87.80;;;;;;5062047;28;20480;-63
2023/10/31 04:47:34;;;;;;;1.80;1.30;;;12.70;87.70;;;;;;5067452;28;20575;-63
2023/10/31 04:49:59;;;;;;;1.63;1.00;;;12.80;87.80;;;;;;5058419;28;20120;-63
2023/10/31 04:52:25;;;;;;;1.65;1.45;;;12.80;87.70;;;;;;5062555;28;20080;-64
2023/10/31 04:54:51;;;;;;;2.28;1.38;;;12.80;87.50;;;;;;5060824;28;20449;-66
2023/10/31 04:57:17;;;;;;;1.38;1.10;;;12.80;87.60;;;;;;5058673;28;20112;-66
2023/10/31 04:59:43;;;;;;;1.27;1.00;;;12.70;87.70;;;;;;5059805;28;20029;-63
2023/10/31 05:02:09;;;;;;;1.85;1.08;;;12.70;87.80;;;;;;5063627;28;20020;-66
2023/10/31 05:04:38;;;;;;;1.25;0.70;;;12.70;87.80;;;;;;5062388;28;20032;-66
2023/10/31 05:07:03;;;;;;;1.58;1.10;;;12.70;87.80;;;;;;5079964;28;20036;-66
2023/10/31 05:09:29;;;;;;;2.88;1.60;;;12.70;87.60;;;;;;5068722;28;20028;-66
2023/10/31 05:11:55;;;;;;;1.40;1.20;;;12.70;87.70;;;;;;5061051;28;20028;-66
2023/10/31 05:14:23;;;;;;;4.45;1.20;;;12.70;87.70;;;;;;5065834;28;20062;-66
2023/10/31 05:16:49;;;;;;;2.28;1.60;;;12.70;87.70;;;;;;5068217;28;20475;-63
2023/10/31 05:19:15;;;;;;;1.98;1.00;;;12.60;87.60;;;;;;5068554;28;20056;-63
2023/10/31 05:21:41;;;;;;;3.97;1.08;;;12.60;87.60;;;;;;5066278;28;20020;-63
2023/10/31 05:24:07;;;;;;;1.70;0.98;;;12.60;87.60;;;;;;5068161;28;20020;-63
2023/10/31 05:26:33;;;;;;;2.28;1.20;;;12.70;87.60;;;;;;5062872;28;20028;-63
2023/10/31 05:28:58;;;;;;;3.20;1.27;;;12.70;87.50;;;;;;5061384;28;20032;-63
2023/10/31 05:31:24;;;;;;;1.20;0.95;;;12.70;87.30;;;;;;5070671;28;20103;-66
2023/10/31 05:33:52;;;;;;;3.10;1.15;;;12.70;87.30;;;;;;5075482;28;20393;-63
2023/10/31 05:36:22;;;;;;;2.50;1.10;;;12.70;87.20;;;;;;5072556;28;20024;-63
2023/10/31 05:38:48;;;;;;;1.38;1.00;;;12.70;87.30;;;;;;5070409;28;20398;-63
2023/10/31 05:41:14;;;;;;;1.42;0.95;;;12.70;87.20;;;;;;5068391;28;20112;-66
2023/10/31 05:43:41;;;;;;;2.42;1.55;;;12.70;87.10;;;;;;5066230;28;20487;-63
2023/10/31 05:46:10;;;;;;;1.23;1.08;;;12.70;87.10;;;;;;5068499;28;20031;-63
2023/10/31 05:48:39;;;;;;;1.58;1.13;;;12.70;87.10;;;;;;5071863;28;20458;-64
2023/10/31 05:51:10;;;;;;;1.95;1.27;;;12.70;87.00;;;;;;5065724;28;20025;-66
2023/10/31 05:53:36;;;;;;;2.78;1.48;;;12.70;87.00;;;;;;5064073;28;20368;-64
2023/10/31 05:56:02;;;;;;;2.30;1.63;;;12.70;86.90;;;;;;5074538;28;20032;-63
2023/10/31 05:58:27;;;;;;;1.80;1.35;;;12.60;87.00;;;;;;5067804;28;20510;-63
2023/10/31 06:00:54;;;;;;;1.38;1.23;;;12.60;87.10;;;;;;5093157;28;20031;-66
2023/10/31 06:03:19;;;;;;;4.40;1.73;;;12.60;87.20;;;;;;5051872;28;20494;-66
2023/10/31 06:05:45;;;;;;;2.70;1.77;;;12.60;87.20;;;;;;5070661;28;20029;-67
2023/10/31 06:08:11;;;;;;;4.68;2.25;;;12.60;87.30;;;;;;5068444;28;20094;-68
2023/10/31 06:10:37;;;;;;;2.20;1.95;;;12.60;87.30;;;;;;5070342;28;20062;-64
2023/10/31 06:13:03;;;;;;;3.15;2.20;;;12.60;87.30;;;;;;5073988;28;20036;-63
2023/10/31 06:15:28;;;;;;;2.58;1.80;;;12.60;87.50;;;;;;5072983;28;20118;-64
2023/10/31 06:17:54;;;;;;;2.30;1.73;;;12.50;87.60;;;;;;5073811;28;20064;-64
2023/10/31 06:20:20;;;;;;;2.30;2.10;;;12.60;87.70;;;;;;5073359;28;20091;-64
2023/10/31 06:22:45;;;;;;;2.05;1.58;;;12.50;87.70;;;;;;5063042;28;20020;-63
2023/10/31 06:25:11;;;;;;;2.47;1.67;;;12.50;87.80;;;;;;5068776;28;20028;-64
2023/10/31 06:27:36;;;;;;;1.65;1.45;;;12.40;87.80;;;;;;5066866;28;20479;-63
2023/10/31 06:30:02;;;;;;;1.38;1.15;;;12.40;87.80;;;;;;5071570;28;20046;-64
2023/10/31 06:32:28;;;;;;;1.50;1.05;;;12.40;87.80;;;;;;5071319;28;20029;-64
2023/10/31 06:34:54;;;;;;;2.13;1.17;;;12.40;87.90;;;;;;5072921;28;20121;-63
2023/10/31 06:37:19;;;;;;;2.22;1.10;;;12.40;87.80;;;;;;5071919;28;20119;-63
2023/10/31 06:39:45;;;;;;;1.00;0.93;;;12.40;87.70;;;;;;5068090;28;20118;-66
2023/10/31 06:42:11;;;;;;;0.77;0.75;;;12.40;87.60;;;;;;5092938;28;20028;-66
2023/10/31 06:44:36;;;;;;;1.83;1.25;;;12.40;87.50;;;;;;5070137;28;20023;-66
2023/10/31 06:47:02;;;;;;;2.70;1.30;;;12.30;87.50;;;;;;5071037;28;20036;-66
2023/10/31 06:49:28;;;;;;;0.93;0.90;;;12.30;87.60;;;;;;5069775;28;20028;-67
2023/10/31 06:51:53;;;;;;;0.80;0.80;;;12.40;87.50;;;;;;5076559;28;20035;-64
2023/10/31 06:54:19;;;;;;;1.38;0.85;;;12.40;87.40;;;;;;5075706;28;20115;-63
2023/10/31 06:56:45;;;;;;;0.90;0.73;;;12.40;87.40;;;;;;5067738;28;20074;-64
2023/10/31 06:59:10;;;;;;;0.70;0.70;;;12.40;87.30;;;;;;5069271;28;20040;-64
2023/10/31 07:01:37;;;;;;;0.77;0.60;;;12.40;87.40;;;;;;5069056;28;20024;-65
2023/10/31 07:04:03;;;;;;;0.50;0.50;;;12.40;87.50;;;;;;5072078;28;20120;-63
2023/10/31 07:06:29;;;;;;;1.67;1.30;;;12.40;87.60;;;;;;5065231;28;20488;-64
2023/10/31 07:08:55;;;;;;;1.85;1.00;;;12.50;87.60;;;;;;5069760;28;20137;-64
2023/10/31 07:11:20;;;;;;;3.75;1.02;;;12.40;87.80;;;;;;5072181;28;20036;-64
2023/10/31 07:13:46;;;;;;;2.17;1.42;;;12.40;88.00;;;;;;5073020;28;20062;-63
2023/10/31 07:16:12;;;;;;;1.45;0.80;;;12.40;88.00;;;;;;5068267;28;20031;-63
2023/10/31 07:18:37;;;;;;;4.28;1.42;;;12.40;88.10;;;;;;5063457;28;20040;-64
2023/10/31 07:21:03;;;;;;;2.63;1.25;;;12.40;88.70;;;;;;5065538;28;20502;-64
2023/10/31 07:23:29;;;;;;;3.60;2.05;;;12.40;88.10;;;;;;5061235;28;20415;-64
2023/10/31 07:25:55;;;;;;;1.98;1.35;;;12.50;88.20;;;;;;5064897;28;20029;-64
2023/10/31 07:28:20;;;;;;;3.70;1.90;;;12.50;88.10;;;;;;5064400;28;20029;-64
2023/10/31 07:30:46;;;;;;;5.13;1.92;;;12.60;88.10;;;;;;5064351;28;20051;-64
2023/10/31 07:33:11;;;;;;;4.22;2.58;;;12.60;88.10;;;;;;5053883;28;20395;-64
2023/10/31 07:35:37;;;;;;;3.35;1.77;;;12.60;88.30;;;;;;5066011;28;20395;-67
2023/10/31 07:38:03;;;;;;;2.60;2.05;;;12.60;88.30;;;;;;5053982;28;20079;-67
2023/10/31 07:40:28;;;;;;;7.35;2.00;;;12.70;88.30;;;;;;5058048;28;20036;-64
2023/10/31 07:42:54;;;;;;;4.93;2.25;;;12.70;88.10;;;;;;5064964;28;20376;-64
2023/10/31 07:45:20;;;;;;;5.70;2.08;;;12.70;87.90;;;;;;5070552;28;20064;-64
2023/10/31 07:47:46;;;;;;;4.00;2.83;;;12.70;88.10;;;;;;5073144;28;20027;-67
2023/10/31 07:50:13;;;;;;;4.75;2.97;;;12.70;88.20;;;;;;5071472;28;20514;-67
2023/10/31 07:52:38;;;;;;;5.28;3.22;;;12.80;88.20;;;;;;5075238;28;20399;-67
2023/10/31 07:55:04;;;;;;;5.13;2.90;;;12.80;88.20;;;;;;5072844;28;20058;-67
2023/10/31 07:57:30;;;;;;;3.10;1.98;;;12.80;88.20;;;;;;5036064;28;20032;-64
2023/10/31 07:59:56;;;;;;;4.72;3.20;;;12.90;88.20;;;;;;5060615;28;20388;-68
2023/10/31 08:02:21;;;;;;;3.92;2.50;;;12.90;88.00;;;;;;5045542;28;20036;-64
2023/10/31 08:04:47;;;;;;;4.47;3.28;;;12.90;88.00;;;;;;5064768;28;20514;-68
2023/10/31 08:07:12;;;;;;;5.80;2.78;;;13.00;88.10;;;;;;5059979;28;20376;-64
2023/10/31 08:09:38;;;;;;;4.00;2.72;;;13.10;88.10;;;;;;5053431;28;20399;-63
2023/10/31 08:12:04;;;;;;;5.65;3.28;;;13.10;87.90;;;;;;5050065;28;20045;-67
2023/10/31 08:14:30;;;;;;;7.30;4.18;;;13.10;87.60;;;;;;5042866;28;20185;-65
2023/10/31 08:16:56;;;;;;;6.90;3.80;;;13.10;87.60;;;;;;5053857;28;20602;-64
2023/10/31 08:19:21;;;;;;;6.63;3.58;;;13.00;87.60;;;;;;5057516;28;20048;-68
2023/10/31 08:21:47;;;;;;;6.95;3.47;;;13.00;87.70;;;;;;5053541;28;20467;-66
2023/10/31 08:24:13;;;;;;;8.00;3.17;;;13.00;87.80;;;;;;5061140;28;20037;-65
2023/10/31 08:26:39;;;;;;;5.45;3.28;;;13.10;87.90;;;;;;5065767;28;20081;-64
2023/10/31 08:29:05;;;;;;;7.65;3.10;;;13.20;87.80;;;;;;5058640;28;20285;-65
2023/10/31 08:31:30;;;;;;;5.78;3.63;;;13.20;87.70;;;;;;5064015;28;20159;-67
2023/10/31 08:33:56;;;;;;;5.40;3.03;;;13.30;87.60;;;;;;5061588;28;20112;-66
2023/10/31 08:36:22;;;;;;;6.43;3.70;;;13.40;87.30;;;;;;5067052;28;20029;-66
2023/10/31 08:38:49;;;;;;;4.30;3.33;;;13.40;87.20;;;;;;5060453;28;20033;-67
2023/10/31 08:41:19;;;;;;;6.13;3.00;;;13.40;87.00;;;;;;5065381;28;20027;-66
2023/10/31 08:43:46;;;;;;;2.55;2.30;;;13.40;87.00;;;;;;5058470;28;20413;-65
2023/10/31 08:46:13;;;;;;;4.90;3.10;;;13.40;87.20;;;;;;5062855;28;20340;-65
2023/10/31 08:48:38;;;;;;;3.17;1.98;;;13.50;87.20;;;;;;5049627;28;20024;-63
2023/10/31 08:51:04;;;;;;;6.55;2.22;;;13.50;87.10;;;;;;5065149;28;20035;-64
2023/10/31 08:53:30;;;;;;;4.15;1.67;;;13.60;87.10;;;;;;5059627;28;20478;-72
2023/10/31 08:55:56;;;;;;;4.45;2.55;;;13.70;87.00;;;;;;5073679;28;20033;-66
2023/10/31 08:58:22;;;;;;;4.40;2.22;;;13.70;86.60;;;;;;5062381;28;20087;-66
2023/10/31 09:00:47;;;;;;;5.22;2.63;;;13.70;86.50;;;;;;5045891;28;20123;-69
2023/10/31 09:03:13;;;;;;;3.60;2.03;;;13.80;86.50;;;;;;5057415;28;20424;-69
2023/10/31 09:05:40;;;;;;;4.78;2.38;;;13.80;86.60;;;;;;5060056;28;20028;-66
2023/10/31 09:08:06;;;;;;;5.22;1.88;;;13.80;86.70;;;;;;5064034;28;20112;-64
2023/10/31 09:10:33;;;;;;;3.85;1.98;;;13.90;86.70;;;;;;5065917;28;20032;-64
2023/10/31 09:12:59;;;;;;;5.07;2.45;;;14.10;86.50;;;;;;5067685;28;20044;-64
2023/10/31 09:15:25;;;;;;;3.95;2.17;;;14.20;86.40;;;;;;5069808;28;20043;-64
2023/10/31 09:17:50;;;;;;;6.10;2.22;;;14.40;85.70;;;;;;5067500;28;20029;-63
2023/10/31 09:20:16;;;;;;;2.70;2.03;;;14.40;85.50;;;;;;5066780;28;20124;-63
2023/10/31 09:22:42;;;;;;;3.83;1.35;;;14.60;85.30;;;;;;5060868;28;20037;-64
2023/10/31 09:25:07;;;;;;;1.50;1.30;;;14.70;85.20;;;;;;5058635;28;20054;-64
2023/10/31 09:27:33;;;;;;;2.40;1.75;;;14.80;85.00;;;;;;5052983;28;20112;-64
2023/10/31 09:29:59;;;;;;;2.95;2.08;;;14.90;84.50;;;;;;5059878;28;20079;-63
2023/10/31 09:32:24;;;;;;;2.85;1.70;;;14.80;84.40;;;;;;5052935;28;20082;-64
2023/10/31 09:34:50;;;;;;;5.75;2.13;;;14.80;84.30;;;;;;5073423;28;20031;-66
2023/10/31 09:37:16;;;;;;;7.13;2.35;;;14.70;84.40;;;;;;5052967;28;20068;-67
2023/10/31 09:39:42;;;;;;;2.63;1.63;;;14.70;84.50;;;;;;5061123;28;20042;-66
2023/10/31 09:42:08;;;;;;;3.50;1.80;;;14.60;84.50;;;;;;5065266;28;20402;-67
2023/10/31 09:44:34;;;;;;;1.58;1.40;;;14.60;84.60;;;;;;5059107;28;20508;-66
2023/10/31 09:47:01;;;;;;;2.78;1.63;;;14.50;84.80;;;;;;5066604;28;20063;-69
2023/10/31 09:49:28;;;;;;;2.95;1.48;;;14.70;84.90;;;;;;5067504;28;20056;-66
2023/10/31 09:51:54;;;;;;;1.98;1.23;;;14.70;84.30;;;;;;5058924;28;20032;-66
2023/10/31 09:54:19;;;;;;;6.88;1.75;;;14.70;84.30;;;;;;5075328;28;20551;-66
2023/10/31 09:56:45;;;;;;;2.28;1.52;;;14.70;84.20;;;;;;5060792;28;20090;-66
2023/10/31 09:59:13;;;;;;;1.85;0.90;;;14.60;83.80;;;;;;5069446;28;20020;-66
2023/10/31 10:01:39;;;;;;;1.92;1.13;;;14.60;84.20;;;;;;5072593;28;20051;-66
2023/10/31 10:04:05;;;;;;;2.30;1.23;;;14.70;84.30;;;;;;5075778;28;20028;-66
2023/10/31 10:06:31;;;;;;;3.92;1.52;;;14.60;83.80;;;;;;5079448;28;20024;-64
2023/10/31 10:08:57;;;;;;;2.20;1.55;;;14.70;83.60;;;;;;5078171;28;20032;-63
2023/10/31 10:11:24;;;;;;;4.13;2.00;;;14.70;83.50;;;;;;5066199;28;20101;-64
2023/10/31 10:13:52;;;;;;;5.35;0.93;;;14.70;83.40;;;;;;5075536;28;20025;-63
2023/10/31 10:16:32;;;;;;;4.95;1.70;;;14.80;83.70;;;;;;5062416;28;20124;-66
2023/10/31 10:19:19;;;;;;;1.83;1.42;;;14.80;83.40;;;;;;5063009;28;20125;-68
2023/10/31 10:21:52;;;;;;;5.50;1.60;;;14.70;83.20;;;;;;5068171;28;20036;-67
2023/10/31 10:24:20;;;;;;;1.35;1.23;;;14.70;83.60;;;;;;5070903;28;20468;-68
2023/10/31 10:26:46;;;;;;;6.43;1.27;;;14.60;83.50;;;;;;5067409;28;20024;-64
2023/10/31 10:29:12;;;;;;;3.42;1.58;;;14.70;83.70;;;;;;5062912;28;20373;-65
2023/10/31 10:31:37;;;;;;;2.17;1.90;;;14.70;83.30;;;;;;5069782;28;20119;-67
2023/10/31 10:34:03;;;;;;;3.80;1.73;;;14.60;83.10;;;;;;5069333;28;20476;-68
2023/10/31 10:36:32;;;;;;;3.65;1.77;;;14.60;83.30;;;;;;5066019;28;20032;-65
2023/10/31 10:38:58;;;;;;;2.00;1.40;;;14.70;83.40;;;;;;5064626;28;20060;-65
2023/10/31 10:41:26;;;;;;;1.83;1.30;;;14.70;83.10;;;;;;5070777;28;20044;-65
2023/10/31 10:44:03;;;;;;;1.45;1.27;;;14.80;83.00;;;;;;5085876;28;20399;-64
2023/10/31 10:46:35;;;;;;;3.13;1.98;;;14.80;83.20;;;;;;5067776;28;20461;-65
2023/10/31 10:49:06;;;;;;;3.33;2.58;;;15.00;83.20;;;;;;5065661;28;20126;-67
2023/10/31 10:51:43;;;;;;;5.68;1.85;;;15.30;81.70;;;;;;5066799;28;20039;-65
2023/10/31 10:54:15;;;;;;;2.05;1.85;;;15.50;81.20;;;;;;5068848;28;20032;-65
2023/10/31 10:57:08;;;;;;;4.22;2.05;;;15.60;80.60;;;;;;5068269;28;20031;-67
2023/10/31 10:59:49;;;;;;;2.75;1.73;;;15.60;80.70;;;;;;5067534;28;20024;-67
2023/10/31 11:02:15;;;;;;;2.85;1.75;;;15.90;80.80;;;;;;5068452;28;20028;-65
2023/10/31 11:04:42;;;;;;;2.85;1.85;;;16.00;80.20;;;;;;5070404;28;20032;-65
2023/10/31 11:07:09;;;;;;;3.65;1.10;;;16.20;79.60;;;;;;5070829;28;20054;-68
2023/10/31 11:09:35;;;;;;;5.68;1.23;;;16.30;80.10;;;;;;5073970;28;20468;-67
2023/10/31 11:12:02;;;;;;;2.05;1.77;;;16.60;78.50;;;;;;5070658;28;20040;-65
2023/10/31 11:14:30;;;;;;;4.05;1.95;;;16.70;77.50;;;;;;5078429;28;20041;-65
2023/10/31 11:16:59;;;;;;;2.92;1.85;;;16.70;77.60;;;;;;5051033;28;20639;-68
2023/10/31 11:19:27;;;;;;;2.13;1.40;;;16.60;77.00;;;;;;5062164;28;20958;-68
2023/10/31 11:22:02;;;;;;;1.92;1.42;;;16.40;77.50;;;;;;5054495;28;20036;-67
2023/10/31 11:24:37;;;;;;;2.88;1.58;;;16.30;78.30;;;;;;5069909;28;20024;-67
2023/10/31 11:27:06;;;;;;;2.08;1.60;;;16.20;78.50;;;;;;5059585;28;20089;-67
2023/10/31 11:29:32;;;;;;;1.77;1.45;;;16.00;78.60;;;;;;5058120;28;20033;-68
2023/10/31 11:31:59;;;;;;;2.10;1.52;;;15.80;79.20;;;;;;5067949;28;20036;-67
2023/10/31 11:34:31;;;;;;;1.90;1.50;;;15.70;79.60;;;;;;5058278;28;20043;-68
2023/10/31 11:37:31;;;;;;;2.00;1.75;;;15.60;79.80;;;;;;5067982;28;20428;-68
2023/10/31 11:40:16;;;;;;;7.82;2.72;;;15.60;80.10;;;;;;5065656;28;20048;-64
2023/10/31 11:42:42;;;;;;;6.10;2.70;;;15.50;80.30;;;;;;5065254;28;20031;-65
2023/10/31 11:45:08;;;;;;;5.28;3.05;;;15.40;81.30;;;;;;5059784;28;20032;-64
2023/10/31 11:47:50;;;;;;;5.93;3.10;;;15.30;81.10;;;;;;5062520;28;20032;-65
2023/10/31 11:50:17;;;;;;;3.35;2.83;;;15.60;81.70;;;;;;5071778;28;20779;-65
2023/10/31 11:52:43;;;;;;;3.83;3.03;;;16.40;80.50;;;;;;5063586;28;20085;-65
2023/10/31 11:55:10;;;;;;;6.88;4.10;;;18.00;78.00;;;;;;5068864;28;20044;-65
2023/10/31 11:57:36;;;;;;;6.32;3.90;;;18.70;71.90;;;;;;5064664;28;20491;-65
2023/10/31 12:00:03;;;;;;;7.10;4.13;;;18.30;72.00;;;;;;5052702;28;20063;-65
2023/10/31 12:02:29;;;;;;;6.32;3.90;;;17.80;73.50;;;;;;5066463;28;20094;-64
2023/10/31 12:05:14;;;;;;;4.88;3.58;;;17.30;74.20;;;;;;5068397;28;20039;-64
2023/10/31 12:07:44;;;;;;;7.05;4.25;;;17.10;75.00;;;;;;5067942;28;20459;-63
2023/10/31 12:10:11;;;;;;;7.18;4.13;;;17.20;74.90;;;;;;5071526;28;20040;-63
2023/10/31 12:12:36;;;;;;;5.80;3.95;;;17.20;75.70;;;;;;5067166;28;20039;-64
2023/10/31 12:15:09;;;;;;;8.63;4.43;;;17.50;74.70;;;;;;5066753;28;20032;-64
2023/10/31 12:17:35;;;;;;;7.97;3.97;;;17.60;72.70;;;;;;5066392;28;20060;-69
2023/10/31 12:20:09;;;;;;;6.55;3.50;;;17.50;73.40;;;;;;5069654;28;20035;-63
2023/10/31 12:22:35;;;;;;;7.57;3.60;;;17.60;73.80;;;;;;5063271;28;20032;-64
2023/10/31 12:25:05;;;;;;;6.28;3.47;;;18.10;72.80;;;;;;5071241;28;20478;-64
2023/10/31 12:27:49;;;;;;;7.28;3.45;;;18.70;69.80;;;;;;5069181;28;20028;-64
2023/10/31 12:30:22;;;;;;;10.25;4.10;;;18.60;69.80;;;;;;5067885;28;20288;-69
2023/10/31 12:32:55;;;;;;;6.35;4.43;;;18.00;69.50;;;;;;5068215;28;20032;-69
2023/10/31 12:35:23;;;;;;;9.57;4.32;;;17.30;71.50;;;;;;5056432;28;20044;-69
2023/10/31 12:37:49;;;;;;;11.80;3.92;;;16.80;72.90;;;;;;5065232;28;20032;-68
2023/10/31 12:40:18;;;;;;;8.23;4.20;;;16.30;74.60;;;;;;5065712;28;20048;-67
2023/10/31 12:42:45;;;;;;;6.53;3.90;;;16.00;75.70;;;;;;5073653;28;20032;-67
2023/10/31 12:45:12;;;;;;;7.93;4.10;;;15.70;76.00;;;;;;5064920;28;20159;-66